sensor_id;sensor_type;location;lat;lon;timestamp;temperature;humidity
16485;DHT22;8353;47.856;12.344;2023-06-22T00:00:44;24.40;99.90
16485;DHT22;8353;47.856;12.344;2023-06-22T00:03:30;24.30;99.90
16485;DHT22;8353;47.856;12.344;2023-06-22T00:06:17;24.30;99.90
16485;DHT22;8353;47.856;12.344;2023-06-22T00:09:04;24.20;99.90
16485;DHT22;8353;47.856;12.344;2023-06-22T00:11:53;24.00;99.90
16485;DHT22;8353;47.856;12.344;2023-06-22T00:14:40;23.90;99.90
16485;DHT22;8353;47.856;12.344;2023-06-22T00:17:27;23.90;99.90
16485;DHT22;8353;47.856;12.344;2023-06-22T00:20:14;24.00;99.90
16485;DHT22;8353;47.856;12.344;2023-06-22T00:23:00;24.00;99.90
16485;DHT22;8353;47.856;12.344;2023-06-22T00:25:47;24.00;99.90
16485;DHT22;8353;47.856;12.344;2023-06-22T00:28:35;23.90;99.90
16485;DHT22;8353;47.856;12.344;2023-06-22T00:31:22;24.00;99.90
16485;DHT22;8353;47.856;12.344;2023-06-22T00:34:09;24.20;99.90
16485;DHT22;8353;47.856;12.344;2023-06-22T00:36:56;24.50;99.90
16485;DHT22;8353;47.856;12.344;2023-06-22T00:39:42;24.70;99.90
16485;DHT22;8353;47.856;12.344;2023-06-22T00:42:29;24.70;99.90
16485;DHT22;8353;47.856;12.344;2023-06-22T00:45:17;24.60;99.90
16485;DHT22;8353;47.856;12.344;2023-06-22T00:48:05;24.60;99.90
16485;DHT22;8353;47.856;12.344;2023-06-22T00:50:51;24.60;99.90
16485;DHT22;8353;47.856;12.344;2023-06-22T00:53:39;24.60;99.90
16485;DHT22;8353;47.856;12.344;2023-06-22T00:56:26;24.30;99.90
16485;DHT22;8353;47.856;12.344;2023-06-22T00:59:15;24.30;99.90
16485;DHT22;8353;47.856;12.344;2023-06-22T01:02:04;24.30;99.90
16485;DHT22;8353;47.856;12.344;2023-06-22T01:04:51;24.30;99.90
16485;DHT22;8353;47.856;12.344;2023-06-22T01:07:44;24.20;99.90
16485;DHT22;8353;47.856;12.344;2023-06-22T01:10:43;24.30;99.90
16485;DHT22;8353;47.856;12.344;2023-06-22T01:13:36;24.30;99.90
16485;DHT22;8353;47.856;12.344;2023-06-22T01:16:26;24.30;99.90
16485;DHT22;8353;47.856;12.344;2023-06-22T01:19:26;24.30;99.90
16485;DHT22;8353;47.856;12.344;2023-06-22T01:22:17;24.20;99.90
16485;DHT22;8353;47.856;12.344;2023-06-22T01:25:10;24.30;99.90
16485;DHT22;8353;47.856;12.344;2023-06-22T01:28:03;24.30;99.90
16485;DHT22;8353;47.856;12.344;2023-06-22T01:30:53;24.30;99.90
16485;DHT22;8353;47.856;12.344;2023-06-22T01:33:51;24.30;99.90
16485;DHT22;8353;47.856;12.344;2023-06-22T01:36:39;24.20;99.90
16485;DHT22;8353;47.856;12.344;2023-06-22T01:39:26;24.00;99.90
16485;DHT22;8353;47.856;12.344;2023-06-22T01:42:13;24.10;99.90
16485;DHT22;8353;47.856;12.344;2023-06-22T01:45:01;24.00;99.90
16485;DHT22;8353;47.856;12.344;2023-06-22T01:47:50;23.90;99.90
16485;DHT22;8353;47.856;12.344;2023-06-22T01:50:37;23.90;99.90
16485;DHT22;8353;47.856;12.344;2023-06-22T01:53:25;23.90;99.90
16485;DHT22;8353;47.856;12.344;2023-06-22T01:56:12;23.90;99.90
16485;DHT22;8353;47.856;12.344;2023-06-22T01:59:03;23.80;99.90
16485;DHT22;8353;47.856;12.344;2023-06-22T02:01:57;23.90;99.90
16485;DHT22;8353;47.856;12.344;2023-06-22T02:04:48;23.90;99.90
16485;DHT22;8353;47.856;12.344;2023-06-22T02:07:42;23.90;99.90
16485;DHT22;8353;47.856;12.344;2023-06-22T02:10:31;23.90;99.90
16485;DHT22;8353;47.856;12.344;2023-06-22T02:13:19;23.90;99.90
16485;DHT22;8353;47.856;12.344;2023-06-22T02:16:06;23.70;99.90
16485;DHT22;8353;47.856;12.344;2023-06-22T02:18:53;23.80;99.90
16485;DHT22;8353;47.856;12.344;2023-06-22T02:21:41;23.90;99.90
16485;DHT22;8353;47.856;12.344;2023-06-22T02:24:27;23.70;99.90
16485;DHT22;8353;47.856;12.344;2023-06-22T02:27:16;23.70;99.90
16485;DHT22;8353;47.856;12.344;2023-06-22T02:30:04;23.60;99.90
16485;DHT22;8353;47.856;12.344;2023-06-22T02:32:51;23.50;99.90
16485;DHT22;8353;47.856;12.344;2023-06-22T02:35:43;23.50;99.90
16485;DHT22;8353;47.856;12.344;2023-06-22T02:38:35;23.50;99.90
16485;DHT22;8353;47.856;12.344;2023-06-22T02:41:22;23.70;99.90
16485;DHT22;8353;47.856;12.344;2023-06-22T02:44:09;23.70;99.90
16485;DHT22;8353;47.856;12.344;2023-06-22T02:46:56;23.70;99.90
16485;DHT22;8353;47.856;12.344;2023-06-22T02:49:42;23.70;99.90
16485;DHT22;8353;47.856;12.344;2023-06-22T02:52:30;23.60;99.90
16485;DHT22;8353;47.856;12.344;2023-06-22T02:55:18;23.50;99.90
16485;DHT22;8353;47.856;12.344;2023-06-22T02:58:05;23.60;99.90
16485;DHT22;8353;47.856;12.344;2023-06-22T03:00:52;23.60;99.90
16485;DHT22;8353;47.856;12.344;2023-06-22T03:03:39;23.70;99.90
16485;DHT22;8353;47.856;12.344;2023-06-22T03:06:26;23.60;99.90
16485;DHT22;8353;47.856;12.344;2023-06-22T03:09:13;23.60;99.90
16485;DHT22;8353;47.856;12.344;2023-06-22T03:12:02;23.70;99.90
16485;DHT22;8353;47.856;12.344;2023-06-22T03:14:49;23.80;99.90
16485;DHT22;8353;47.856;12.344;2023-06-22T03:17:36;23.60;99.90
16485;DHT22;8353;47.856;12.344;2023-06-22T03:20:24;23.50;99.90
16485;DHT22;8353;47.856;12.344;2023-06-22T03:23:13;23.60;99.90
16485;DHT22;8353;47.856;12.344;2023-06-22T03:26:00;23.50;99.90
16485;DHT22;8353;47.856;12.344;2023-06-22T03:28:48;23.50;99.90
16485;DHT22;8353;47.856;12.344;2023-06-22T03:31:35;23.60;99.90
16485;DHT22;8353;47.856;12.344;2023-06-22T03:34:22;23.70;99.90
16485;DHT22;8353;47.856;12.344;2023-06-22T03:37:08;23.70;99.90
16485;DHT22;8353;47.856;12.344;2023-06-22T03:39:56;23.60;99.90
16485;DHT22;8353;47.856;12.344;2023-06-22T03:42:43;23.60;99.90
16485;DHT22;8353;47.856;12.344;2023-06-22T03:45:31;23.60;99.90
16485;DHT22;8353;47.856;12.344;2023-06-22T03:48:17;23.60;99.90
16485;DHT22;8353;47.856;12.344;2023-06-22T03:51:04;23.60;99.90
16485;DHT22;8353;47.856;12.344;2023-06-22T03:53:51;23.60;99.90
16485;DHT22;8353;47.856;12.344;2023-06-22T03:56:38;23.70;99.90
16485;DHT22;8353;47.856;12.344;2023-06-22T03:59:25;23.70;99.90
16485;DHT22;8353;47.856;12.344;2023-06-22T04:02:13;23.70;99.90
16485;DHT22;8353;47.856;12.344;2023-06-22T04:05:00;23.80;99.90
16485;DHT22;8353;47.856;12.344;2023-06-22T04:07:46;23.80;99.90
16485;DHT22;8353;47.856;12.344;2023-06-22T04:10:33;23.70;99.90
16485;DHT22;8353;47.856;12.344;2023-06-22T04:13:20;23.50;99.90
16485;DHT22;8353;47.856;12.344;2023-06-22T04:16:07;23.70;99.90
16485;DHT22;8353;47.856;12.344;2023-06-22T04:18:55;23.70;99.90
16485;DHT22;8353;47.856;12.344;2023-06-22T04:21:42;23.70;99.90
16485;DHT22;8353;47.856;12.344;2023-06-22T04:24:29;23.60;99.90
16485;DHT22;8353;47.856;12.344;2023-06-22T04:27:16;23.80;99.90
16485;DHT22;8353;47.856;12.344;2023-06-22T04:30:05;23.90;99.90
16485;DHT22;8353;47.856;12.344;2023-06-22T04:32:52;23.90;99.90
16485;DHT22;8353;47.856;12.344;2023-06-22T04:35:46;23.80;99.90
16485;DHT22;8353;47.856;12.344;2023-06-22T04:38:32;23.80;99.90
16485;DHT22;8353;47.856;12.344;2023-06-22T04:41:19;23.80;99.90
16485;DHT22;8353;47.856;12.344;2023-06-22T04:44:09;23.80;99.90
16485;DHT22;8353;47.856;12.344;2023-06-22T04:46:57;23.80;99.90
16485;DHT22;8353;47.856;12.344;2023-06-22T04:49:47;23.90;99.90
16485;DHT22;8353;47.856;12.344;2023-06-22T04:52:37;24.00;99.90
16485;DHT22;8353;47.856;12.344;2023-06-22T04:55:24;24.10;99.90
16485;DHT22;8353;47.856;12.344;2023-06-22T04:58:11;24.10;99.90
16485;DHT22;8353;47.856;12.344;2023-06-22T05:00:58;24.20;99.90
16485;DHT22;8353;47.856;12.344;2023-06-22T05:03:45;24.30;99.90
16485;DHT22;8353;47.856;12.344;2023-06-22T05:06:34;24.40;99.90
16485;DHT22;8353;47.856;12.344;2023-06-22T05:09:23;24.30;99.90
16485;DHT22;8353;47.856;12.344;2023-06-22T05:12:10;24.20;99.90
16485;DHT22;8353;47.856;12.344;2023-06-22T05:14:59;24.00;99.90
16485;DHT22;8353;47.856;12.344;2023-06-22T05:17:46;24.00;99.90
16485;DHT22;8353;47.856;12.344;2023-06-22T05:20:34;24.10;99.90
16485;DHT22;8353;47.856;12.344;2023-06-22T05:23:21;24.00;99.90
16485;DHT22;8353;47.856;12.344;2023-06-22T05:26:09;24.20;99.90
16485;DHT22;8353;47.856;12.344;2023-06-22T05:28:57;24.20;99.90
16485;DHT22;8353;47.856;12.344;2023-06-22T05:31:43;24.20;99.90
16485;DHT22;8353;47.856;12.344;2023-06-22T05:34:30;24.20;99.90
16485;DHT22;8353;47.856;12.344;2023-06-22T05:37:17;24.20;99.90
16485;DHT22;8353;47.856;12.344;2023-06-22T05:40:05;24.30;99.90
16485;DHT22;8353;47.856;12.344;2023-06-22T05:42:54;24.40;99.90
16485;DHT22;8353;47.856;12.344;2023-06-22T05:45:41;24.50;99.90
16485;DHT22;8353;47.856;12.344;2023-06-22T05:48:28;24.70;99.90
16485;DHT22;8353;47.856;12.344;2023-06-22T05:51:14;24.80;99.90
16485;DHT22;8353;47.856;12.344;2023-06-22T05:54:01;24.90;99.90
16485;DHT22;8353;47.856;12.344;2023-06-22T05:56:48;25.00;99.90
16485;DHT22;8353;47.856;12.344;2023-06-22T05:59:36;25.10;99.90
16485;DHT22;8353;47.856;12.344;2023-06-22T06:02:23;25.40;99.90
16485;DHT22;8353;47.856;12.344;2023-06-22T06:05:11;26.00;99.90
16485;DHT22;8353;47.856;12.344;2023-06-22T06:07:59;26.40;99.90
16485;DHT22;8353;47.856;12.344;2023-06-22T06:10:46;26.60;99.90
16485;DHT22;8353;47.856;12.344;2023-06-22T06:13:33;26.80;99.90
16485;DHT22;8353;47.856;12.344;2023-06-22T06:16:22;26.80;99.90
16485;DHT22;8353;47.856;12.344;2023-06-22T06:19:09;26.80;99.90
16485;DHT22;8353;47.856;12.344;2023-06-22T06:21:55;26.80;99.90
16485;DHT22;8353;47.856;12.344;2023-06-22T06:24:43;26.60;99.90
16485;DHT22;8353;47.856;12.344;2023-06-22T06:27:30;26.40;99.90
16485;DHT22;8353;47.856;12.344;2023-06-22T06:30:19;26.40;99.90
16485;DHT22;8353;47.856;12.344;2023-06-22T06:33:10;26.60;99.90
16485;DHT22;8353;47.856;12.344;2023-06-22T06:35:57;26.80;99.90
16485;DHT22;8353;47.856;12.344;2023-06-22T06:38:47;26.90;99.90
16485;DHT22;8353;47.856;12.344;2023-06-22T06:41:35;27.00;99.90
16485;DHT22;8353;47.856;12.344;2023-06-22T06:44:46;27.30;99.90
16485;DHT22;8353;47.856;12.344;2023-06-22T06:47:33;27.30;99.90
16485;DHT22;8353;47.856;12.344;2023-06-22T06:50:21;27.50;99.90
16485;DHT22;8353;47.856;12.344;2023-06-22T06:53:08;27.70;99.90
16485;DHT22;8353;47.856;12.344;2023-06-22T06:55:55;27.50;99.90
16485;DHT22;8353;47.856;12.344;2023-06-22T06:58:42;27.40;99.90
16485;DHT22;8353;47.856;12.344;2023-06-22T07:01:30;27.50;99.90
16485;DHT22;8353;47.856;12.344;2023-06-22T07:04:19;27.50;99.90
16485;DHT22;8353;47.856;12.344;2023-06-22T07:07:07;27.80;99.90
16485;DHT22;8353;47.856;12.344;2023-06-22T07:09:53;27.80;99.90
16485;DHT22;8353;47.856;12.344;2023-06-22T07:12:40;27.90;99.90
16485;DHT22;8353;47.856;12.344;2023-06-22T07:15:28;27.80;99.90
16485;DHT22;8353;47.856;12.344;2023-06-22T07:18:15;27.70;99.90
16485;DHT22;8353;47.856;12.344;2023-06-22T07:21:08;28.00;99.90
16485;DHT22;8353;47.856;12.344;2023-06-22T07:23:58;28.10;99.90
16485;DHT22;8353;47.856;12.344;2023-06-22T07:26:45;28.40;99.90
16485;DHT22;8353;47.856;12.344;2023-06-22T07:29:34;28.60;99.90
16485;DHT22;8353;47.856;12.344;2023-06-22T07:32:21;28.90;99.90
16485;DHT22;8353;47.856;12.344;2023-06-22T07:35:08;29.00;99.90
16485;DHT22;8353;47.856;12.344;2023-06-22T07:37:56;28.90;99.90
16485;DHT22;8353;47.856;12.344;2023-06-22T07:40:44;29.10;99.90
16485;DHT22;8353;47.856;12.344;2023-06-22T07:43:31;29.10;99.90
16485;DHT22;8353;47.856;12.344;2023-06-22T07:46:19;29.10;99.90
16485;DHT22;8353;47.856;12.344;2023-06-22T07:49:06;29.00;99.90
16485;DHT22;8353;47.856;12.344;2023-06-22T07:51:53;29.00;99.90
16485;DHT22;8353;47.856;12.344;2023-06-22T07:54:40;29.00;99.90
16485;DHT22;8353;47.856;12.344;2023-06-22T07:57:28;29.00;99.90
16485;DHT22;8353;47.856;12.344;2023-06-22T08:00:19;29.00;99.90
16485;DHT22;8353;47.856;12.344;2023-06-22T08:03:06;29.20;99.90
16485;DHT22;8353;47.856;12.344;2023-06-22T08:05:53;29.40;99.90
16485;DHT22;8353;47.856;12.344;2023-06-22T08:08:40;29.60;99.90
16485;DHT22;8353;47.856;12.344;2023-06-22T08:11:28;29.60;99.90
16485;DHT22;8353;47.856;12.344;2023-06-22T08:14:16;29.80;99.90
16485;DHT22;8353;47.856;12.344;2023-06-22T08:17:03;29.80;99.90
16485;DHT22;8353;47.856;12.344;2023-06-22T08:19:50;29.80;99.90
16485;DHT22;8353;47.856;12.344;2023-06-22T08:22:36;29.90;99.90
16485;DHT22;8353;47.856;12.344;2023-06-22T08:25:24;30.10;99.90
16485;DHT22;8353;47.856;12.344;2023-06-22T08:28:10;30.30;99.90
16485;DHT22;8353;47.856;12.344;2023-06-22T08:31:02;30.40;99.90
16485;DHT22;8353;47.856;12.344;2023-06-22T08:33:49;30.60;99.90
16485;DHT22;8353;47.856;12.344;2023-06-22T08:36:36;30.60;99.90
16485;DHT22;8353;47.856;12.344;2023-06-22T08:39:37;30.80;99.90
16485;DHT22;8353;47.856;12.344;2023-06-22T08:42:27;30.80;99.90
16485;DHT22;8353;47.856;12.344;2023-06-22T08:45:20;30.60;99.90
16485;DHT22;8353;47.856;12.344;2023-06-22T08:48:08;30.90;99.90
16485;DHT22;8353;47.856;12.344;2023-06-22T08:50:57;31.00;99.90
16485;DHT22;8353;47.856;12.344;2023-06-22T08:53:45;31.10;99.90
16485;DHT22;8353;47.856;12.344;2023-06-22T08:56:32;31.40;99.90
16485;DHT22;8353;47.856;12.344;2023-06-22T08:59:20;31.20;99.90
16485;DHT22;8353;47.856;12.344;2023-06-22T09:02:06;31.20;99.90
16485;DHT22;8353;47.856;12.344;2023-06-22T09:04:55;31.00;99.90
16485;DHT22;8353;47.856;12.344;2023-06-22T09:07:43;30.90;99.90
16485;DHT22;8353;47.856;12.344;2023-06-22T09:10:30;31.00;99.90
16485;DHT22;8353;47.856;12.344;2023-06-22T09:13:16;31.00;99.90
16485;DHT22;8353;47.856;12.344;2023-06-22T09:16:04;31.00;99.90
16485;DHT22;8353;47.856;12.344;2023-06-22T09:18:50;31.40;99.90
16485;DHT22;8353;47.856;12.344;2023-06-22T09:21:39;31.40;99.90
16485;DHT22;8353;47.856;12.344;2023-06-22T09:24:25;31.30;99.90
16485;DHT22;8353;47.856;12.344;2023-06-22T09:27:12;31.20;99.90
16485;DHT22;8353;47.856;12.344;2023-06-22T09:29:59;31.00;99.90
16485;DHT22;8353;47.856;12.344;2023-06-22T09:32:45;31.40;99.90
16485;DHT22;8353;47.856;12.344;2023-06-22T09:35:32;31.40;99.90
16485;DHT22;8353;47.856;12.344;2023-06-22T09:38:26;31.40;99.90
16485;DHT22;8353;47.856;12.344;2023-06-22T09:41:14;31.40;99.90
16485;DHT22;8353;47.856;12.344;2023-06-22T09:44:04;31.70;99.90
16485;DHT22;8353;47.856;12.344;2023-06-22T09:46:51;32.10;99.90
16485;DHT22;8353;47.856;12.344;2023-06-22T09:49:38;32.40;99.90
16485;DHT22;8353;47.856;12.344;2023-06-22T09:52:25;32.40;99.90
16485;DHT22;8353;47.856;12.344;2023-06-22T09:55:13;32.40;99.90
16485;DHT22;8353;47.856;12.344;2023-06-22T09:58:01;32.20;99.90
16485;DHT22;8353;47.856;12.344;2023-06-22T10:00:48;32.50;99.90
16485;DHT22;8353;47.856;12.344;2023-06-22T10:03:37;32.40;99.90
16485;DHT22;8353;47.856;12.344;2023-06-22T10:06:24;32.20;99.90
16485;DHT22;8353;47.856;12.344;2023-06-22T10:09:11;32.20;99.90
16485;DHT22;8353;47.856;12.344;2023-06-22T10:11:59;32.60;99.90
16485;DHT22;8353;47.856;12.344;2023-06-22T10:14:46;32.80;99.90
16485;DHT22;8353;47.856;12.344;2023-06-22T10:17:33;33.00;99.90
16485;DHT22;8353;47.856;12.344;2023-06-22T10:20:19;33.20;99.90
16485;DHT22;8353;47.856;12.344;2023-06-22T10:23:07;33.20;99.90
16485;DHT22;8353;47.856;12.344;2023-06-22T10:25:55;33.30;99.90
16485;DHT22;8353;47.856;12.344;2023-06-22T10:28:49;33.40;99.90
16485;DHT22;8353;47.856;12.344;2023-06-22T10:31:36;33.60;99.90
16485;DHT22;8353;47.856;12.344;2023-06-22T10:34:24;33.90;99.90
16485;DHT22;8353;47.856;12.344;2023-06-22T10:37:10;34.00;99.90
16485;DHT22;8353;47.856;12.344;2023-06-22T10:39:57;34.40;99.90
16485;DHT22;8353;47.856;12.344;2023-06-22T10:42:44;34.70;99.90
16485;DHT22;8353;47.856;12.344;2023-06-22T10:45:33;34.80;99.90
16485;DHT22;8353;47.856;12.344;2023-06-22T10:48:20;34.70;99.90
16485;DHT22;8353;47.856;12.344;2023-06-22T10:51:07;34.50;99.90
16485;DHT22;8353;47.856;12.344;2023-06-22T10:53:53;34.50;99.90
16485;DHT22;8353;47.856;12.344;2023-06-22T10:56:40;34.40;99.90
16485;DHT22;8353;47.856;12.344;2023-06-22T10:59:28;34.60;99.90
16485;DHT22;8353;47.856;12.344;2023-06-22T11:02:16;34.70;99.90
16485;DHT22;8353;47.856;12.344;2023-06-22T11:05:04;34.80;99.90
16485;DHT22;8353;47.856;12.344;2023-06-22T11:07:51;34.60;99.90
16485;DHT22;8353;47.856;12.344;2023-06-22T11:10:37;34.90;99.90
16485;DHT22;8353;47.856;12.344;2023-06-22T11:13:24;35.10;99.90
16485;DHT22;8353;47.856;12.344;2023-06-22T11:16:11;34.90;99.90
16485;DHT22;8353;47.856;12.344;2023-06-22T11:18:59;35.10;99.90
16485;DHT22;8353;47.856;12.344;2023-06-22T11:21:46;35.20;99.90
16485;DHT22;8353;47.856;12.344;2023-06-22T11:24:33;35.40;99.90
16485;DHT22;8353;47.856;12.344;2023-06-22T11:27:19;35.30;99.90
16485;DHT22;8353;47.856;12.344;2023-06-22T11:30:09;35.40;99.90
16485;DHT22;8353;47.856;12.344;2023-06-22T11:32:56;35.10;99.90
16485;DHT22;8353;47.856;12.344;2023-06-22T11:35:45;35.20;99.90
16485;DHT22;8353;47.856;12.344;2023-06-22T11:38:31;35.30;99.90
16485;DHT22;8353;47.856;12.344;2023-06-22T11:41:19;35.70;99.90
16485;DHT22;8353;47.856;12.344;2023-06-22T11:44:05;35.60;99.90
16485;DHT22;8353;47.856;12.344;2023-06-22T11:46:52;35.40;99.90
16485;DHT22;8353;47.856;12.344;2023-06-22T11:49:39;35.40;99.90
16485;DHT22;8353;47.856;12.344;2023-06-22T11:52:29;35.40;99.90
16485;DHT22;8353;47.856;12.344;2023-06-22T11:55:16;35.30;99.90
16485;DHT22;8353;47.856;12.344;2023-06-22T11:58:02;35.40;99.90
16485;DHT22;8353;47.856;12.344;2023-06-22T12:00:51;35.60;99.90
16485;DHT22;8353;47.856;12.344;2023-06-22T12:03:38;35.50;99.90
16485;DHT22;8353;47.856;12.344;2023-06-22T12:06:24;35.40;99.90
16485;DHT22;8353;47.856;12.344;2023-06-22T12:09:13;35.50;99.90
16485;DHT22;8353;47.856;12.344;2023-06-22T12:12:00;35.70;99.90
16485;DHT22;8353;47.856;12.344;2023-06-22T12:14:47;36.30;99.80
16485;DHT22;8353;47.856;12.344;2023-06-22T12:17:34;36.40;99.20
16485;DHT22;8353;47.856;12.344;2023-06-22T12:20:20;36.30;99.90
16485;DHT22;8353;47.856;12.344;2023-06-22T12:23:07;36.80;99.90
16485;DHT22;8353;47.856;12.344;2023-06-22T12:25:55;36.80;98.40
16485;DHT22;8353;47.856;12.344;2023-06-22T12:28:42;36.70;99.90
16485;DHT22;8353;47.856;12.344;2023-06-22T12:31:29;37.00;99.60
16485;DHT22;8353;47.856;12.344;2023-06-22T12:34:20;37.20;99.80
16485;DHT22;8353;47.856;12.344;2023-06-22T12:37:07;37.10;99.00
16485;DHT22;8353;47.856;12.344;2023-06-22T12:39:55;36.90;99.80
16485;DHT22;8353;47.856;12.344;2023-06-22T12:42:44;36.80;98.40
16485;DHT22;8353;47.856;12.344;2023-06-22T12:45:31;36.90;99.10
16485;DHT22;8353;47.856;12.344;2023-06-22T12:48:19;36.90;97.90
16485;DHT22;8353;47.856;12.344;2023-06-22T12:51:05;36.90;97.80
16485;DHT22;8353;47.856;12.344;2023-06-22T12:53:56;37.30;99.90
16485;DHT22;8353;47.856;12.344;2023-06-22T12:56:43;37.60;98.20
16485;DHT22;8353;47.856;12.344;2023-06-22T12:59:32;37.50;98.60
16485;DHT22;8353;47.856;12.344;2023-06-22T13:02:18;37.50;97.50
16485;DHT22;8353;47.856;12.344;2023-06-22T13:05:06;37.20;97.90
16485;DHT22;8353;47.856;12.344;2023-06-22T13:07:52;37.30;98.40
16485;DHT22;8353;47.856;12.344;2023-06-22T13:10:39;37.30;98.30
16485;DHT22;8353;47.856;12.344;2023-06-22T13:13:26;37.20;98.70
16485;DHT22;8353;47.856;12.344;2023-06-22T13:16:15;37.40;98.00
16485;DHT22;8353;47.856;12.344;2023-06-22T13:19:02;37.60;99.60
16485;DHT22;8353;47.856;12.344;2023-06-22T13:21:49;37.70;97.50
16485;DHT22;8353;47.856;12.344;2023-06-22T13:24:36;37.30;98.90
16485;DHT22;8353;47.856;12.344;2023-06-22T13:27:24;37.50;98.10
16485;DHT22;8353;47.856;12.344;2023-06-22T13:30:14;37.10;98.10
16485;DHT22;8353;47.856;12.344;2023-06-22T13:33:02;37.10;98.90
16485;DHT22;8353;47.856;12.344;2023-06-22T13:35:49;37.10;99.40
16485;DHT22;8353;47.856;12.344;2023-06-22T13:38:36;37.50;97.90
16485;DHT22;8353;47.856;12.344;2023-06-22T13:41:24;37.70;97.40
16485;DHT22;8353;47.856;12.344;2023-06-22T13:44:11;37.30;97.00
16485;DHT22;8353;47.856;12.344;2023-06-22T13:46:58;36.90;99.10
16485;DHT22;8353;47.856;12.344;2023-06-22T13:49:46;37.00;98.10
16485;DHT22;8353;47.856;12.344;2023-06-22T13:52:33;37.00;98.50
16485;DHT22;8353;47.856;12.344;2023-06-22T13:55:20;37.10;96.90
16485;DHT22;8353;47.856;12.344;2023-06-22T13:58:07;37.10;97.30
16485;DHT22;8353;47.856;12.344;2023-06-22T14:00:53;37.10;96.80
16485;DHT22;8353;47.856;12.344;2023-06-22T14:03:40;37.20;97.90
16485;DHT22;8353;47.856;12.344;2023-06-22T14:06:29;37.30;97.00
16485;DHT22;8353;47.856;12.344;2023-06-22T14:09:15;37.50;98.20
16485;DHT22;8353;47.856;12.344;2023-06-22T14:12:06;37.40;96.80
16485;DHT22;8353;47.856;12.344;2023-06-22T14:14:53;37.40;95.70
16485;DHT22;8353;47.856;12.344;2023-06-22T14:17:40;37.30;96.30
16485;DHT22;8353;47.856;12.344;2023-06-22T14:20:26;37.30;95.90
16485;DHT22;8353;47.856;12.344;2023-06-22T14:23:14;37.60;97.10
16485;DHT22;8353;47.856;12.344;2023-06-22T14:26:05;37.80;95.90
16485;DHT22;8353;47.856;12.344;2023-06-22T14:28:53;37.70;97.70
16485;DHT22;8353;47.856;12.344;2023-06-22T14:31:40;37.80;97.60
16485;DHT22;8353;47.856;12.344;2023-06-22T14:34:27;38.10;96.00
16485;DHT22;8353;47.856;12.344;2023-06-22T14:37:14;38.20;95.60
16485;DHT22;8353;47.856;12.344;2023-06-22T14:40:06;38.30;95.90
16485;DHT22;8353;47.856;12.344;2023-06-22T14:42:53;38.40;95.70
16485;DHT22;8353;47.856;12.344;2023-06-22T14:45:42;38.70;96.10
16485;DHT22;8353;47.856;12.344;2023-06-22T14:48:28;38.70;94.10
16485;DHT22;8353;47.856;12.344;2023-06-22T14:51:15;38.70;96.00
16485;DHT22;8353;47.856;12.344;2023-06-22T14:54:08;38.90;94.50
16485;DHT22;8353;47.856;12.344;2023-06-22T14:56:56;38.80;95.50
16485;DHT22;8353;47.856;12.344;2023-06-22T14:59:45;38.60;94.60
16485;DHT22;8353;47.856;12.344;2023-06-22T15:02:32;38.50;94.30
16485;DHT22;8353;47.856;12.344;2023-06-22T15:05:19;38.60;95.20
16485;DHT22;8353;47.856;12.344;2023-06-22T15:08:05;38.80;95.70
16485;DHT22;8353;47.856;12.344;2023-06-22T15:10:52;38.90;95.30
16485;DHT22;8353;47.856;12.344;2023-06-22T15:13:41;38.80;92.60
16485;DHT22;8353;47.856;12.344;2023-06-22T15:16:28;38.90;93.30
16485;DHT22;8353;47.856;12.344;2023-06-22T15:19:15;38.80;93.90
16485;DHT22;8353;47.856;12.344;2023-06-22T15:22:03;38.80;93.40
16485;DHT22;8353;47.856;12.344;2023-06-22T15:24:50;38.70;94.10
16485;DHT22;8353;47.856;12.344;2023-06-22T15:27:38;38.70;93.00
16485;DHT22;8353;47.856;12.344;2023-06-22T15:30:26;38.70;91.90
16485;DHT22;8353;47.856;12.344;2023-06-22T15:33:13;38.30;92.70
16485;DHT22;8353;47.856;12.344;2023-06-22T15:36:00;38.10;91.60
16485;DHT22;8353;47.856;12.344;2023-06-22T15:38:49;37.70;92.00
16485;DHT22;8353;47.856;12.344;2023-06-22T15:41:36;37.50;92.10
16485;DHT22;8353;47.856;12.344;2023-06-22T15:44:26;37.20;92.20
16485;DHT22;8353;47.856;12.344;2023-06-22T15:47:14;37.10;91.40
16485;DHT22;8353;47.856;12.344;2023-06-22T15:50:02;36.90;91.50
16485;DHT22;8353;47.856;12.344;2023-06-22T15:52:49;36.90;93.00
16485;DHT22;8353;47.856;12.344;2023-06-22T15:55:37;37.30;92.40
16485;DHT22;8353;47.856;12.344;2023-06-22T15:58:23;37.50;92.30
16485;DHT22;8353;47.856;12.344;2023-06-22T16:01:10;37.80;92.30
16485;DHT22;8353;47.856;12.344;2023-06-22T16:03:58;37.90;91.90
16485;DHT22;8353;47.856;12.344;2023-06-22T16:06:45;37.70;93.10
16485;DHT22;8353;47.856;12.344;2023-06-22T16:09:32;37.50;92.50
16485;DHT22;8353;47.856;12.344;2023-06-22T16:12:18;37.40;92.00
16485;DHT22;8353;47.856;12.344;2023-06-22T16:15:06;37.40;93.40
16485;DHT22;8353;47.856;12.344;2023-06-22T16:17:53;37.40;92.60
16485;DHT22;8353;47.856;12.344;2023-06-22T16:20:41;37.20;92.80
16485;DHT22;8353;47.856;12.344;2023-06-22T16:23:28;37.20;93.60
16485;DHT22;8353;47.856;12.344;2023-06-22T16:26:14;37.50;91.90
16485;DHT22;8353;47.856;12.344;2023-06-22T16:29:01;37.80;92.00
16485;DHT22;8353;47.856;12.344;2023-06-22T16:31:48;38.50;92.00
16485;DHT22;8353;47.856;12.344;2023-06-22T16:34:34;39.00;92.50
16485;DHT22;8353;47.856;12.344;2023-06-22T16:37:22;39.00;90.50
16485;DHT22;8353;47.856;12.344;2023-06-22T16:40:09;38.40;91.00
16485;DHT22;8353;47.856;12.344;2023-06-22T16:42:56;37.80;88.10
16485;DHT22;8353;47.856;12.344;2023-06-22T16:45:43;37.50;90.50
16485;DHT22;8353;47.856;12.344;2023-06-22T16:48:30;37.30;90.20
16485;DHT22;8353;47.856;12.344;2023-06-22T16:51:17;37.30;88.80
16485;DHT22;8353;47.856;12.344;2023-06-22T16:54:05;37.10;87.30
16485;DHT22;8353;47.856;12.344;2023-06-22T16:56:53;37.00;89.70
16485;DHT22;8353;47.856;12.344;2023-06-22T16:59:40;36.90;91.00
16485;DHT22;8353;47.856;12.344;2023-06-22T17:02:28;36.60;91.50
16485;DHT22;8353;47.856;12.344;2023-06-22T17:05:16;36.40;90.70
16485;DHT22;8353;47.856;12.344;2023-06-22T17:08:05;36.20;90.50
16485;DHT22;8353;47.856;12.344;2023-06-22T17:10:56;35.70;90.70
16485;DHT22;8353;47.856;12.344;2023-06-22T17:13:42;35.20;91.30
16485;DHT22;8353;47.856;12.344;2023-06-22T17:16:31;35.10;91.00
16485;DHT22;8353;47.856;12.344;2023-06-22T17:19:19;35.00;91.60
16485;DHT22;8353;47.856;12.344;2023-06-22T17:22:06;35.10;91.30
16485;DHT22;8353;47.856;12.344;2023-06-22T17:24:53;35.00;92.70
16485;DHT22;8353;47.856;12.344;2023-06-22T17:27:41;35.00;91.70
16485;DHT22;8353;47.856;12.344;2023-06-22T17:30:28;35.10;92.40
16485;DHT22;8353;47.856;12.344;2023-06-22T17:33:16;35.10;92.20
16485;DHT22;8353;47.856;12.344;2023-06-22T17:36:10;35.10;92.90
16485;DHT22;8353;47.856;12.344;2023-06-22T17:38:59;35.10;92.40